createdAt,value
2022-10-02T00:00:55.953Z,11.58
2022-10-02T00:01:56.331Z,11.60
2022-10-02T00:02:56.439Z,11.62
2022-10-02T00:03:56.762Z,11.63
2022-10-02T00:04:56.891Z,11.65
2022-10-02T00:06:04.141Z,11.67
2022-10-02T00:06:57.318Z,11.68
2022-10-02T00:07:57.538Z,11.70
2022-10-02T00:08:57.751Z,11.70
2022-10-02T00:09:57.995Z,11.71
2022-10-02T00:10:58.235Z,11.73
2022-10-02T00:11:58.459Z,11.73
2022-10-02T00:12:58.677Z,11.76
2022-10-02T00:13:58.912Z,11.77
2022-10-02T00:14:59.148Z,11.78
2022-10-02T00:15:59.421Z,11.78
2022-10-02T00:16:59.649Z,11.80
2022-10-02T00:17:59.855Z,11.80
2022-10-02T00:19:00.075Z,11.81
2022-10-02T00:20:00.301Z,11.83
2022-10-02T00:21:00.506Z,11.85
2022-10-02T00:22:00.718Z,11.86
2022-10-02T00:23:00.931Z,11.86
2022-10-02T00:24:01.155Z,11.86
2022-10-02T00:25:01.407Z,11.86
2022-10-02T00:26:01.663Z,11.89
2022-10-02T00:27:01.911Z,11.88
2022-10-02T00:28:02.165Z,11.89
2022-10-02T00:29:02.289Z,11.89
2022-10-02T00:30:02.545Z,11.89
2022-10-02T00:31:02.767Z,11.88
2022-10-02T00:32:03.101Z,11.89
2022-10-02T00:33:03.416Z,11.88
2022-10-02T00:34:03.402Z,11.88
2022-10-02T00:35:03.644Z,11.86
2022-10-02T00:36:03.864Z,11.86
2022-10-02T00:37:04.057Z,11.88
2022-10-02T00:38:04.285Z,11.88
2022-10-02T00:39:04.522Z,11.88
2022-10-02T00:40:04.756Z,11.89
2022-10-02T00:41:04.968Z,11.89
2022-10-02T00:42:05.184Z,11.89
2022-10-02T00:43:05.402Z,11.88
2022-10-02T00:44:05.612Z,11.88
2022-10-02T00:45:05.831Z,11.86
2022-10-02T00:46:06.084Z,11.85
2022-10-02T00:47:06.283Z,11.81
2022-10-02T00:48:06.553Z,11.80
2022-10-02T00:49:06.771Z,11.77
2022-10-02T00:50:07.000Z,11.78
2022-10-02T00:51:07.213Z,11.77
2022-10-02T00:52:07.425Z,11.77
2022-10-02T00:53:07.651Z,11.77
2022-10-02T00:54:07.869Z,11.78
2022-10-02T00:55:08.095Z,11.77
2022-10-02T00:56:08.300Z,11.76
2022-10-02T00:57:08.523Z,11.76
2022-10-02T00:58:08.727Z,11.74
2022-10-02T00:59:08.936Z,11.74
2022-10-02T01:00:09.151Z,11.76
2022-10-02T01:01:09.421Z,11.76
2022-10-02T01:02:09.545Z,11.74
2022-10-02T01:03:09.757Z,11.68
2022-10-02T01:04:09.988Z,11.67
2022-10-02T01:05:10.217Z,11.67
2022-10-02T01:06:10.427Z,11.63
2022-10-02T01:07:10.639Z,11.60
2022-10-02T01:08:10.846Z,11.58
2022-10-02T01:09:11.055Z,11.60
2022-10-02T01:10:11.275Z,11.59
2022-10-02T01:11:11.476Z,11.58
2022-10-02T01:12:11.694Z,11.56
2022-10-02T01:13:11.905Z,11.55
2022-10-02T01:14:12.127Z,11.53
2022-10-02T01:15:12.380Z,11.53
2022-10-02T01:16:12.644Z,11.53
2022-10-02T01:17:12.865Z,11.53
2022-10-02T01:18:13.084Z,11.49
2022-10-02T01:19:13.298Z,11.48
2022-10-02T01:20:13.547Z,11.45
2022-10-02T01:21:13.765Z,11.44
2022-10-02T01:22:13.978Z,11.41
2022-10-02T01:23:14.188Z,11.38
2022-10-02T01:24:14.432Z,11.33
2022-10-02T01:25:14.688Z,11.34
2022-10-02T01:26:14.924Z,11.33
2022-10-02T01:27:15.157Z,11.31
2022-10-02T01:28:15.447Z,11.30
2022-10-02T01:29:15.551Z,11.31
2022-10-02T01:30:15.803Z,11.31
2022-10-02T01:31:16.206Z,11.31
2022-10-02T01:32:16.246Z,11.31
2022-10-02T01:33:16.476Z,11.33
2022-10-02T01:34:16.697Z,11.33
2022-10-02T01:35:16.932Z,11.33
2022-10-02T01:36:17.161Z,11.31
2022-10-02T01:37:17.374Z,11.31
2022-10-02T01:38:17.597Z,11.30
2022-10-02T01:39:17.811Z,11.26
2022-10-02T01:40:18.071Z,11.26
2022-10-02T01:41:18.290Z,11.25
2022-10-02T01:42:18.505Z,11.23
2022-10-02T01:43:18.709Z,11.22
2022-10-02T01:44:18.921Z,11.22
2022-10-02T01:45:19.158Z,11.20
2022-10-02T01:46:19.387Z,11.20
2022-10-02T01:47:19.599Z,11.19
2022-10-02T01:48:19.810Z,11.19
2022-10-02T01:49:20.028Z,11.18
2022-10-02T01:50:20.273Z,11.18
2022-10-02T01:51:20.494Z,11.16
2022-10-02T01:52:20.742Z,11.15
2022-10-02T01:53:20.970Z,11.13
2022-10-02T01:54:21.210Z,11.12
2022-10-02T01:55:21.441Z,11.15
2022-10-02T01:56:21.664Z,11.13
2022-10-02T01:57:21.889Z,11.13
2022-10-02T01:58:22.120Z,11.13
2022-10-02T01:59:22.347Z,11.12
2022-10-02T02:00:22.583Z,11.13
2022-10-02T02:01:22.841Z,11.12
2022-10-02T02:02:23.088Z,11.10
2022-10-02T02:03:23.198Z,11.08
2022-10-02T02:04:23.414Z,11.05
2022-10-02T02:05:23.649Z,11.05
2022-10-02T02:06:23.866Z,11.07
2022-10-02T02:07:24.086Z,11.05
2022-10-02T02:08:24.318Z,11.05
2022-10-02T02:09:24.536Z,11.04
2022-10-02T02:10:24.775Z,11.05
2022-10-02T02:11:25.004Z,11.02
2022-10-02T02:12:25.260Z,11.02
2022-10-02T02:13:25.486Z,11.02
2022-10-02T02:14:25.722Z,11.02
2022-10-02T02:15:26.002Z,11.01
2022-10-02T02:16:26.295Z,11.01
2022-10-02T02:17:26.537Z,11.02
2022-10-02T02:18:26.680Z,11.02
2022-10-02T02:19:26.903Z,11.02
2022-10-02T02:20:27.143Z,11.02
2022-10-02T02:21:27.364Z,11.02
2022-10-02T02:22:27.576Z,11.02
2022-10-02T02:23:27.806Z,11.01
2022-10-02T02:24:28.041Z,11.02
2022-10-02T02:25:28.310Z,11.05
2022-10-02T02:26:28.543Z,11.07
2022-10-02T02:27:28.771Z,11.07
2022-10-02T02:28:29.018Z,11.07
2022-10-02T02:29:29.221Z,11.12
2022-10-02T02:30:29.688Z,11.15
2022-10-02T02:31:29.726Z,11.13
2022-10-02T02:32:29.958Z,11.12
2022-10-02T02:33:30.185Z,11.12
2022-10-02T02:34:30.405Z,11.10
2022-10-02T02:35:30.660Z,11.08
2022-10-02T02:36:30.883Z,11.08
2022-10-02T02:37:31.117Z,11.08
2022-10-02T02:38:31.340Z,11.07
2022-10-02T02:39:31.568Z,11.07
2022-10-02T02:40:31.824Z,11.07
2022-10-02T02:41:32.049Z,11.07
2022-10-02T02:42:32.282Z,11.10
2022-10-02T02:43:32.519Z,11.13
2022-10-02T02:44:32.762Z,11.15
2022-10-02T02:45:33.059Z,11.18
2022-10-02T02:46:33.291Z,11.18
2022-10-02T02:47:33.418Z,11.18
2022-10-02T02:48:33.645Z,11.13
2022-10-02T02:49:33.864Z,11.15
2022-10-02T02:50:34.093Z,11.13
2022-10-02T02:51:34.325Z,11.13
2022-10-02T02:52:34.536Z,11.13
2022-10-02T02:53:34.758Z,11.13
2022-10-02T02:54:34.976Z,11.10
2022-10-02T02:55:35.219Z,11.10
2022-10-02T02:56:35.717Z,11.08
2022-10-02T02:57:35.715Z,11.08
2022-10-02T02:58:35.937Z,11.04
2022-10-02T02:59:36.165Z,11.00
2022-10-02T03:00:36.395Z,10.98
2022-10-02T03:01:36.628Z,11.00
2022-10-02T03:02:36.937Z,10.98
2022-10-02T03:03:37.048Z,10.97
2022-10-02T03:04:37.288Z,10.95
2022-10-02T03:05:37.513Z,10.92
2022-10-02T03:06:38.246Z,10.89
2022-10-02T03:07:37.995Z,10.89
2022-10-02T03:08:38.257Z,10.86
2022-10-02T03:09:38.495Z,10.86
2022-10-02T03:10:38.731Z,10.84
2022-10-02T03:11:38.954Z,10.82
2022-10-02T03:12:39.198Z,10.82
2022-10-02T03:13:39.451Z,10.82
2022-10-02T03:14:39.695Z,10.82
2022-10-02T03:15:39.969Z,10.83
2022-10-02T03:16:40.211Z,10.82
2022-10-02T03:17:40.442Z,10.77
2022-10-02T03:18:40.670Z,10.77
2022-10-02T03:19:40.891Z,10.79
2022-10-02T03:20:41.134Z,10.76
2022-10-02T03:21:41.368Z,10.75
2022-10-02T03:22:41.604Z,10.75
2022-10-02T03:23:41.849Z,10.75
2022-10-02T03:24:42.087Z,10.71
2022-10-02T03:25:42.318Z,10.71
2022-10-02T03:26:42.551Z,10.68
2022-10-02T03:27:42.789Z,10.69
2022-10-02T03:28:55.531Z,10.69
2022-10-02T03:29:44.202Z,10.71
2022-10-02T03:30:43.456Z,10.71
2022-10-02T03:31:43.780Z,10.69
2022-10-02T03:32:43.842Z,10.71
2022-10-02T03:33:44.067Z,10.69
2022-10-02T03:34:44.336Z,10.69
2022-10-02T03:35:44.611Z,10.68
2022-10-02T03:36:44.838Z,10.68
2022-10-02T03:37:45.065Z,10.68
2022-10-02T03:38:50.101Z,10.68
2022-10-02T03:39:46.456Z,10.68
2022-10-02T03:40:45.698Z,10.68
2022-10-02T03:41:45.920Z,10.69
2022-10-02T03:42:46.126Z,10.69
2022-10-02T03:43:46.345Z,10.71
2022-10-02T03:44:46.560Z,10.71
2022-10-02T03:45:51.406Z,10.71
2022-10-02T03:46:48.029Z,10.71
2022-10-02T03:47:47.235Z,10.72
2022-10-02T03:48:47.455Z,10.72
2022-10-02T03:49:47.682Z,10.72
2022-10-02T03:50:47.913Z,10.72
2022-10-02T03:51:48.132Z,10.72
2022-10-02T03:52:48.365Z,10.75
2022-10-02T03:53:48.583Z,10.76
2022-10-02T03:54:48.817Z,10.76
2022-10-02T03:55:49.072Z,10.77
2022-10-02T03:56:49.297Z,10.77
2022-10-02T03:57:49.521Z,10.75
2022-10-02T03:58:49.738Z,10.75
2022-10-02T03:59:49.971Z,10.76
2022-10-02T04:00:50.245Z,10.77
2022-10-02T04:01:50.446Z,10.77
2022-10-02T04:02:50.576Z,10.79
2022-10-02T04:03:50.877Z,10.82
2022-10-02T04:04:51.008Z,10.83
2022-10-02T04:05:51.253Z,10.83
2022-10-02T04:06:51.462Z,10.83
2022-10-02T04:07:52.869Z,10.82
2022-10-02T04:08:51.930Z,10.83
2022-10-02T04:09:52.148Z,10.86
2022-10-02T04:10:52.380Z,10.86
2022-10-02T04:11:52.598Z,10.86
2022-10-02T04:12:52.824Z,10.84
2022-10-02T04:13:53.046Z,10.84
2022-10-02T04:14:53.274Z,10.86
2022-10-02T04:15:53.530Z,10.87
2022-10-02T04:16:53.722Z,10.87
2022-10-02T04:17:58.773Z,10.89
2022-10-02T04:18:55.127Z,10.89
2022-10-02T04:19:54.360Z,10.86
2022-10-02T04:20:54.605Z,10.86
2022-10-02T04:21:54.835Z,10.84
2022-10-02T04:22:55.058Z,10.87
2022-10-02T04:23:55.285Z,10.87
2022-10-02T04:24:55.516Z,10.89
2022-10-02T04:25:55.765Z,10.90
2022-10-02T04:26:55.989Z,10.97
2022-10-02T04:27:56.276Z,11.01
2022-10-02T04:28:56.402Z,11.05
2022-10-02T04:29:56.666Z,11.12
2022-10-02T04:30:56.910Z,11.15
2022-10-02T04:31:57.159Z,11.19
2022-10-02T04:32:57.440Z,11.20
2022-10-02T04:33:57.573Z,11.22
2022-10-02T04:34:57.755Z,11.23
2022-10-02T04:35:57.962Z,11.30
2022-10-02T04:36:58.151Z,11.30
2022-10-02T04:37:58.431Z,11.31
2022-10-02T04:38:58.595Z,11.33
2022-10-02T04:39:58.868Z,11.34
2022-10-02T04:40:59.171Z,11.35
2022-10-02T04:41:59.341Z,11.34
2022-10-02T04:42:59.506Z,11.35
2022-10-02T04:43:59.686Z,11.35
2022-10-02T04:44:59.846Z,11.37
2022-10-02T04:46:00.122Z,11.43
2022-10-02T04:47:00.255Z,11.44
2022-10-02T04:48:00.436Z,11.48
2022-10-02T04:49:00.620Z,11.51
2022-10-02T04:50:00.812Z,11.52
2022-10-02T04:51:01.019Z,11.52
2022-10-02T04:52:01.204Z,11.53
2022-10-02T04:53:01.390Z,11.55
2022-10-02T04:54:01.630Z,11.56
2022-10-02T04:55:01.841Z,11.59
2022-10-02T04:56:02.087Z,11.62
2022-10-02T04:57:02.297Z,11.63
2022-10-02T04:58:02.509Z,11.65
2022-10-02T04:59:02.727Z,11.67
2022-10-02T05:00:02.946Z,11.68
2022-10-02T05:01:03.210Z,11.68
2022-10-02T05:02:03.507Z,11.71
2022-10-02T05:03:03.618Z,11.76
2022-10-02T05:04:04.286Z,11.77
2022-10-02T05:05:04.081Z,11.77
2022-10-02T05:06:04.308Z,11.76
2022-10-02T05:07:04.529Z,11.76
2022-10-02T05:08:04.743Z,11.74
2022-10-02T05:09:04.956Z,11.76
2022-10-02T05:10:05.176Z,11.77
2022-10-02T05:11:05.407Z,11.78
2022-10-02T05:12:05.611Z,11.80
2022-10-02T05:13:05.827Z,11.81
2022-10-02T05:14:06.067Z,11.83
2022-10-02T05:15:06.289Z,11.86
2022-10-02T05:16:06.585Z,11.89
2022-10-02T05:17:06.674Z,11.88
2022-10-02T05:18:06.894Z,11.89
2022-10-02T05:19:07.108Z,11.88
2022-10-02T05:20:07.315Z,11.86
2022-10-02T05:21:07.559Z,11.85
2022-10-02T05:22:07.763Z,11.83
2022-10-02T05:23:07.984Z,11.81
2022-10-02T05:24:08.191Z,11.81
2022-10-02T05:25:08.408Z,11.81
2022-10-02T05:26:13.425Z,11.81
2022-10-02T05:27:09.782Z,11.80
2022-10-02T05:28:09.064Z,11.81
2022-10-02T05:29:09.189Z,11.80
2022-10-02T05:30:09.394Z,11.81
2022-10-02T05:31:09.676Z,11.81
2022-10-02T05:32:09.793Z,11.85
2022-10-02T05:33:09.995Z,11.86
2022-10-02T05:34:10.258Z,11.85
2022-10-02T05:35:10.471Z,11.86
2022-10-02T05:36:10.695Z,11.83
2022-10-02T05:37:10.921Z,11.85
2022-10-02T05:38:11.152Z,11.85
2022-10-02T05:39:11.361Z,11.85
2022-10-02T05:40:11.580Z,11.83
2022-10-02T05:41:11.820Z,11.85
2022-10-02T05:42:12.078Z,11.86
2022-10-02T05:43:12.290Z,11.91
2022-10-02T05:44:12.517Z,11.89
2022-10-02T05:45:12.741Z,11.95
2022-10-02T05:46:13.107Z,11.97
2022-10-02T05:47:13.128Z,12.02
2022-10-02T05:48:13.341Z,12.10
2022-10-02T05:49:13.546Z,12.14
2022-10-02T05:50:13.758Z,12.20
2022-10-02T05:51:13.981Z,12.26
2022-10-02T05:52:14.188Z,12.32
2022-10-02T05:53:14.392Z,12.44
2022-10-02T05:54:14.609Z,12.50
2022-10-02T05:55:14.819Z,12.61
2022-10-02T05:56:15.047Z,12.69
2022-10-02T05:57:15.247Z,12.75
2022-10-02T05:58:15.475Z,12.84
2022-10-02T05:59:15.686Z,12.93
2022-10-02T06:00:15.898Z,12.99
2022-10-02T06:01:16.163Z,13.03
2022-10-02T06:02:16.390Z,13.06
2022-10-02T06:03:16.510Z,12.99
2022-10-02T06:04:16.719Z,12.81
2022-10-02T06:05:16.930Z,12.61
2022-10-02T06:06:24.246Z,12.47
2022-10-02T06:07:17.397Z,12.37
2022-10-02T06:08:17.612Z,12.26
2022-10-02T06:09:19.975Z,12.20
2022-10-02T06:10:18.003Z,12.14
2022-10-02T06:11:18.206Z,12.11
2022-10-02T06:12:18.455Z,12.07
2022-10-02T06:13:18.664Z,12.05
2022-10-02T06:14:18.879Z,12.03
2022-10-02T06:15:19.110Z,12.00
2022-10-02T06:16:19.418Z,12.02
2022-10-02T06:17:19.536Z,12.00
2022-10-02T06:18:19.752Z,12.02
2022-10-02T06:19:19.975Z,12.03
2022-10-02T06:20:20.214Z,12.07
2022-10-02T06:21:20.448Z,12.08
2022-10-02T06:22:20.705Z,12.10
2022-10-02T06:23:20.950Z,12.11
2022-10-02T06:24:21.130Z,12.14
2022-10-02T06:25:21.373Z,12.20
2022-10-02T06:26:21.619Z,12.20
2022-10-02T06:27:21.875Z,12.26
2022-10-02T06:28:22.141Z,12.28
2022-10-02T06:29:26.909Z,12.28
2022-10-02T06:30:23.463Z,12.29
2022-10-02T06:31:22.737Z,12.29
2022-10-02T06:32:22.942Z,12.30
2022-10-02T06:33:23.179Z,12.30
2022-10-02T06:34:23.393Z,12.32
2022-10-02T06:35:23.615Z,12.29
2022-10-02T06:36:23.822Z,12.30
2022-10-02T06:37:24.051Z,12.32
2022-10-02T06:38:24.262Z,12.33
2022-10-02T06:39:24.478Z,12.32
2022-10-02T06:40:24.717Z,12.36
2022-10-02T06:41:24.915Z,12.39
2022-10-02T06:42:25.158Z,12.40
2022-10-02T06:43:25.369Z,12.35
2022-10-02T06:44:25.608Z,12.37
2022-10-02T06:45:25.915Z,12.43
2022-10-02T06:46:25.988Z,12.39
2022-10-02T06:47:26.257Z,12.40
2022-10-02T06:48:26.363Z,12.48
2022-10-02T06:49:26.574Z,12.50
2022-10-02T06:50:26.777Z,12.55
2022-10-02T06:51:27.009Z,12.55
2022-10-02T06:52:27.252Z,12.65
2022-10-02T06:53:27.461Z,12.70
2022-10-02T06:54:27.678Z,12.75
2022-10-02T06:55:27.896Z,12.98
2022-10-02T06:56:28.090Z,13.01
2022-10-02T06:57:28.366Z,13.17
2022-10-02T06:58:28.476Z,13.11
2022-10-02T06:59:28.690Z,12.99
2022-10-02T07:00:28.909Z,12.88
2022-10-02T07:01:29.121Z,12.80
2022-10-02T07:02:29.409Z,12.83
2022-10-02T07:03:29.513Z,12.84
2022-10-02T07:04:29.717Z,12.90
2022-10-02T07:05:29.963Z,12.99
2022-10-02T07:06:30.219Z,13.06
2022-10-02T07:07:30.464Z,14.13
2022-10-02T07:08:30.686Z,14.90
2022-10-02T07:09:30.903Z,15.54
2022-10-02T07:10:31.096Z,16.17
2022-10-02T07:11:31.304Z,16.86
2022-10-02T07:12:31.526Z,17.38
2022-10-02T07:13:31.725Z,17.38
2022-10-02T07:14:31.932Z,17.16
2022-10-02T07:15:32.125Z,16.32
2022-10-02T07:16:32.371Z,15.63
2022-10-02T07:17:32.568Z,14.93
2022-10-02T07:18:32.744Z,14.53
2022-10-02T07:19:32.933Z,14.40
2022-10-02T07:20:33.114Z,14.30
2022-10-02T07:21:33.302Z,14.63
2022-10-02T07:22:44.424Z,15.51
2022-10-02T07:23:34.683Z,16.26
2022-10-02T07:24:33.884Z,16.62
2022-10-02T07:25:34.082Z,16.86
2022-10-02T07:26:34.583Z,17.20
2022-10-02T07:27:34.515Z,17.41
2022-10-02T07:28:34.716Z,17.87
2022-10-02T07:29:34.889Z,17.97
2022-10-02T07:30:35.076Z,17.69
2022-10-02T07:31:35.290Z,17.79
2022-10-02T07:32:35.452Z,17.60
2022-10-02T07:33:35.623Z,16.91
2022-10-02T07:34:35.794Z,16.55
2022-10-02T07:35:35.956Z,16.57
2022-10-02T07:36:36.306Z,16.21
2022-10-02T07:37:36.323Z,15.85
2022-10-02T07:38:36.492Z,15.91
2022-10-02T07:39:36.661Z,16.72
2022-10-02T07:40:36.841Z,17.14
2022-10-02T07:41:37.022Z,17.50
2022-10-02T07:42:37.223Z,17.68
2022-10-02T07:43:37.391Z,17.90
2022-10-02T07:44:37.549Z,18.48
2022-10-02T07:45:37.767Z,18.41
2022-10-02T07:46:38.288Z,18.67
2022-10-02T07:47:38.011Z,18.70
2022-10-02T07:48:38.172Z,18.11
2022-10-02T07:49:38.331Z,17.42
2022-10-02T07:50:38.499Z,16.83
2022-10-02T07:51:38.667Z,16.39
2022-10-02T07:52:38.860Z,16.24
2022-10-02T07:53:39.106Z,16.62
2022-10-02T07:54:39.191Z,16.89
2022-10-02T07:55:39.341Z,16.94
2022-10-02T07:56:39.625Z,17.02
2022-10-02T07:57:39.701Z,17.04
2022-10-02T07:58:39.876Z,17.19
2022-10-02T07:59:40.051Z,16.97
2022-10-02T08:00:40.199Z,17.24
2022-10-02T08:01:40.372Z,17.30
2022-10-02T08:02:40.558Z,16.92
2022-10-02T08:03:40.796Z,16.68
2022-10-02T08:04:40.864Z,16.72
2022-10-02T08:05:41.015Z,16.54
2022-10-02T08:06:41.180Z,16.47
2022-10-02T08:07:41.351Z,16.55
2022-10-02T08:08:41.496Z,17.13
2022-10-02T08:09:41.639Z,16.91
2022-10-02T08:10:41.792Z,16.74
2022-10-02T08:11:45.034Z,16.76
2022-10-02T08:12:43.122Z,16.54
2022-10-02T08:13:42.162Z,16.41
2022-10-02T08:14:42.345Z,16.39
2022-10-02T08:15:42.503Z,16.43
2022-10-02T08:16:42.705Z,16.26
2022-10-02T08:17:42.870Z,16.39
2022-10-02T08:18:43.028Z,16.32
2022-10-02T08:19:43.310Z,16.28
2022-10-02T08:20:43.349Z,16.98
2022-10-02T08:21:43.499Z,17.14
2022-10-02T08:22:43.651Z,17.07
2022-10-02T08:23:43.793Z,17.30
2022-10-02T08:24:43.957Z,17.42
2022-10-02T08:25:44.139Z,17.34
2022-10-02T08:26:44.302Z,17.05
2022-10-02T08:27:44.464Z,17.02
2022-10-02T08:28:44.631Z,17.10
2022-10-02T08:29:44.803Z,17.19
2022-10-02T08:30:44.948Z,17.35
2022-10-02T08:31:45.154Z,17.50
2022-10-02T08:32:45.206Z,17.46
2022-10-02T08:33:45.388Z,17.24
2022-10-02T08:34:45.563Z,16.89
2022-10-02T08:35:45.719Z,16.98
2022-10-02T08:36:45.869Z,17.07
2022-10-02T08:37:46.030Z,17.46
2022-10-02T08:38:46.196Z,17.56
2022-10-02T08:39:46.348Z,17.57
2022-10-02T08:40:46.499Z,17.22
2022-10-02T08:41:46.647Z,17.01
2022-10-02T08:42:46.863Z,16.97
2022-10-02T08:43:47.060Z,16.95
2022-10-02T08:44:47.215Z,17.04
2022-10-02T08:45:47.493Z,17.07
2022-10-02T08:46:47.539Z,17.23
2022-10-02T08:47:47.702Z,17.44
2022-10-02T08:48:47.869Z,17.65
2022-10-02T08:49:48.030Z,17.49
2022-10-02T08:50:48.183Z,17.47
2022-10-02T08:51:48.364Z,17.71
2022-10-02T08:52:48.524Z,17.60
2022-10-02T08:53:48.681Z,17.38
2022-10-02T08:54:48.827Z,17.23
2022-10-02T08:55:48.978Z,17.20
2022-10-02T08:56:49.132Z,17.49
2022-10-02T08:57:49.290Z,17.39
2022-10-02T08:58:49.451Z,17.31
2022-10-02T08:59:49.671Z,17.32
2022-10-02T09:00:49.802Z,17.31
2022-10-02T09:01:50.012Z,17.35
2022-10-02T09:02:50.253Z,17.22
2022-10-02T09:03:50.303Z,17.13
2022-10-02T09:04:50.458Z,17.12
2022-10-02T09:05:50.616Z,17.17
2022-10-02T09:06:50.771Z,17.17
2022-10-02T09:07:50.936Z,17.13
2022-10-02T09:08:51.105Z,17.01
2022-10-02T09:09:51.295Z,16.95
2022-10-02T09:10:51.489Z,16.95
2022-10-02T09:11:51.655Z,16.97
2022-10-02T09:12:51.827Z,17.02
2022-10-02T09:13:52.003Z,16.92
2022-10-02T09:14:55.705Z,16.76
2022-10-02T09:15:53.282Z,16.65
2022-10-02T09:16:52.515Z,16.47
2022-10-02T09:17:52.557Z,16.40
2022-10-02T09:18:52.739Z,16.39
2022-10-02T09:19:52.910Z,16.41
2022-10-02T09:20:53.072Z,16.41
2022-10-02T09:21:53.241Z,16.32
2022-10-02T09:22:53.430Z,16.26
2022-10-02T09:23:53.616Z,16.29
2022-10-02T09:24:53.795Z,16.26
2022-10-02T09:25:53.968Z,16.24
2022-10-02T09:26:54.155Z,16.29
2022-10-02T09:27:54.359Z,16.34
2022-10-02T09:28:54.588Z,16.39
2022-10-02T09:29:54.646Z,16.40
2022-10-02T09:30:54.818Z,16.44
2022-10-02T09:31:55.043Z,16.54
2022-10-02T09:32:55.126Z,16.57
2022-10-02T09:33:55.331Z,16.54
2022-10-02T09:34:55.526Z,16.65
2022-10-02T09:35:55.704Z,16.83
2022-10-02T09:36:55.924Z,16.94
2022-10-02T09:37:56.100Z,17.30
2022-10-02T09:38:56.284Z,17.46
2022-10-02T09:39:56.480Z,17.68
2022-10-02T09:40:56.650Z,18.03
2022-10-02T09:41:56.802Z,18.51
2022-10-02T09:42:56.972Z,18.58
2022-10-02T09:43:57.163Z,18.51
2022-10-02T09:45:01.188Z,18.13
2022-10-02T09:45:57.495Z,18.11
2022-10-02T09:46:57.633Z,18.11
2022-10-02T09:47:57.798Z,17.97
2022-10-02T09:48:57.984Z,18.18
2022-10-02T09:49:58.142Z,19.19
2022-10-02T09:50:58.301Z,18.91
2022-10-02T09:51:58.457Z,19.17
2022-10-02T09:52:58.625Z,19.49
2022-10-02T09:53:58.786Z,19.22
2022-10-02T09:54:58.920Z,18.33
2022-10-02T09:55:59.068Z,18.45
2022-10-02T09:56:59.237Z,18.42
2022-10-02T09:57:59.378Z,18.70
2022-10-02T09:58:59.536Z,19.24
2022-10-02T09:59:59.673Z,19.42
2022-10-02T10:00:59.842Z,19.62
2022-10-02T10:02:00.033Z,19.56
2022-10-02T10:03:00.088Z,18.96
2022-10-02T10:04:00.260Z,18.46
2022-10-02T10:05:05.985Z,18.33
2022-10-02T10:06:01.481Z,18.06
2022-10-02T10:07:00.613Z,17.63
2022-10-02T10:08:00.744Z,17.34
2022-10-02T10:09:00.924Z,17.07
2022-10-02T10:10:01.057Z,16.94
2022-10-02T10:11:01.244Z,16.84
2022-10-02T10:12:01.396Z,16.66
2022-10-02T10:13:01.561Z,16.50
2022-10-02T10:14:01.742Z,16.28
2022-10-02T10:15:01.913Z,16.08
2022-10-02T10:16:02.145Z,15.87
2022-10-02T10:17:02.214Z,15.75
2022-10-02T10:18:02.373Z,15.57
2022-10-02T10:19:02.573Z,15.41
2022-10-02T10:20:02.726Z,15.25
2022-10-02T10:21:02.921Z,15.12
2022-10-02T10:22:03.100Z,15.05
2022-10-02T10:23:03.272Z,14.93
2022-10-02T10:24:03.460Z,14.82
2022-10-02T10:25:03.643Z,14.81
2022-10-02T10:26:03.819Z,14.71
2022-10-02T10:27:07.438Z,14.63
2022-10-02T10:28:06.224Z,14.56
2022-10-02T10:29:04.431Z,14.51
2022-10-02T10:30:04.610Z,14.44
2022-10-02T10:31:04.781Z,14.44
2022-10-02T10:32:05.009Z,14.43
2022-10-02T10:33:05.162Z,14.49
2022-10-02T10:34:05.391Z,14.55
2022-10-02T10:35:05.578Z,14.62
2022-10-02T10:36:05.770Z,14.85
2022-10-02T10:37:05.950Z,15.91
2022-10-02T10:38:06.131Z,16.95
2022-10-02T10:39:06.325Z,17.78
2022-10-02T10:40:06.509Z,18.12
2022-10-02T10:41:06.670Z,18.03
2022-10-02T10:42:06.834Z,17.66
2022-10-02T10:43:08.584Z,17.27
2022-10-02T10:44:07.115Z,17.14
2022-10-02T10:45:07.289Z,16.98
2022-10-02T10:46:07.505Z,17.02
2022-10-02T10:47:07.637Z,16.86
2022-10-02T10:48:07.787Z,16.69
2022-10-02T10:49:07.971Z,16.73
2022-10-02T10:50:08.114Z,16.76
2022-10-02T10:51:08.272Z,16.87
2022-10-02T10:52:08.409Z,16.94
2022-10-02T10:53:08.605Z,17.01
2022-10-02T10:54:08.776Z,17.12
2022-10-02T10:55:08.937Z,17.04
2022-10-02T10:56:09.094Z,16.82
2022-10-02T10:57:09.247Z,16.92
2022-10-02T10:58:09.411Z,16.98
2022-10-02T10:59:09.562Z,17.12
2022-10-02T11:00:09.698Z,17.22
2022-10-02T11:01:09.906Z,17.27
2022-10-02T11:02:10.037Z,17.14
2022-10-02T11:03:10.091Z,16.95
2022-10-02T11:04:10.248Z,16.83
2022-10-02T11:05:10.426Z,17.76
2022-10-02T11:06:10.569Z,19.26
2022-10-02T11:07:10.713Z,20.19
2022-10-02T11:08:10.857Z,20.71
2022-10-02T11:09:11.015Z,19.96
2022-10-02T11:10:11.177Z,19.11
2022-10-02T11:11:11.237Z,18.71
2022-10-02T11:12:11.370Z,18.27
2022-10-02T11:13:11.510Z,17.71
2022-10-02T11:14:11.685Z,17.27
2022-10-02T11:15:11.707Z,16.87
2022-10-02T11:16:11.902Z,16.65
2022-10-02T11:17:11.910Z,16.61
2022-10-02T11:18:12.059Z,16.57
2022-10-02T11:19:12.254Z,16.32
2022-10-02T11:20:12.278Z,16.18
2022-10-02T11:21:12.428Z,16.13
2022-10-02T11:22:12.576Z,16.02
2022-10-02T11:23:12.739Z,15.91
2022-10-02T11:24:12.907Z,15.80
2022-10-02T11:25:13.378Z,15.59
2022-10-02T11:26:13.221Z,15.48
2022-10-02T11:27:13.383Z,15.43
2022-10-02T11:28:13.581Z,15.35
2022-10-02T11:29:13.665Z,15.35
2022-10-02T11:30:13.823Z,15.17
2022-10-02T11:31:14.040Z,14.99
2022-10-02T11:32:14.229Z,14.89
2022-10-02T11:33:14.404Z,14.85
2022-10-02T11:34:14.596Z,14.74
2022-10-02T11:35:14.796Z,14.71
2022-10-02T11:36:14.975Z,14.68
2022-10-02T11:37:15.156Z,14.70
2022-10-02T11:38:15.349Z,14.70
2022-10-02T11:39:15.555Z,14.74
2022-10-02T11:40:15.712Z,14.77
2022-10-02T11:41:16.626Z,15.26
2022-10-02T11:42:16.025Z,16.24
2022-10-02T11:43:16.220Z,17.31
2022-10-02T11:44:16.768Z,18.26
2022-10-02T11:45:16.585Z,18.91
2022-10-02T11:46:16.858Z,19.52
2022-10-02T11:47:16.894Z,19.85
2022-10-02T11:48:17.035Z,19.74
2022-10-02T11:49:17.185Z,20.14
2022-10-02T11:50:17.311Z,20.22
2022-10-02T11:51:17.446Z,20.44
2022-10-02T11:52:17.560Z,20.80
2022-10-02T11:53:17.694Z,20.74
2022-10-02T11:54:17.824Z,21.26
2022-10-02T11:55:17.931Z,21.58
2022-10-02T11:56:18.034Z,21.72
2022-10-02T11:57:18.130Z,22.07
2022-10-02T11:58:18.236Z,22.12
2022-10-02T11:59:18.370Z,22.43
2022-10-02T12:00:18.440Z,22.80
2022-10-02T12:01:18.521Z,23.02
2022-10-02T12:02:18.674Z,22.78
2022-10-02T12:03:18.750Z,22.34
2022-10-02T12:04:18.714Z,22.36
2022-10-02T12:05:18.797Z,22.40
2022-10-02T12:06:18.875Z,22.15
2022-10-02T12:07:18.951Z,22.00
2022-10-02T12:08:19.025Z,22.08
2022-10-02T12:10:16.273Z,22.47
2022-10-02T12:11:16.349Z,22.18
2022-10-02T12:12:17.254Z,22.22
2022-10-02T12:13:16.654Z,22.34
2022-10-02T12:14:16.844Z,22.07
2022-10-02T12:15:17.024Z,21.92
2022-10-02T12:16:17.290Z,21.69
2022-10-02T12:17:17.392Z,21.45
2022-10-02T12:18:21.638Z,21.58
2022-10-02T12:19:17.748Z,21.83
2022-10-02T12:20:17.927Z,22.53
2022-10-02T12:21:18.092Z,22.53
2022-10-02T12:22:18.268Z,22.78
2022-10-02T12:23:18.428Z,22.98
2022-10-02T12:24:18.582Z,22.74
2022-10-02T12:25:18.758Z,22.71
2022-10-02T12:26:18.937Z,22.53
2022-10-02T12:27:19.071Z,22.78
2022-10-02T12:28:19.314Z,22.28
2022-10-02T12:29:19.459Z,21.51
2022-10-02T12:30:19.663Z,20.64
2022-10-02T12:31:19.888Z,19.66
2022-10-02T12:32:20.035Z,19.09
2022-10-02T12:33:20.268Z,19.12
2022-10-02T12:34:20.456Z,19.99
2022-10-02T12:35:20.666Z,20.77
2022-10-02T12:36:20.856Z,20.93
2022-10-02T12:37:21.047Z,20.92
2022-10-02T12:38:21.234Z,21.45
2022-10-02T12:39:22.258Z,21.97
2022-10-02T12:40:21.600Z,22.28
2022-10-02T12:41:21.782Z,22.30
2022-10-02T12:42:21.964Z,22.44
2022-10-02T12:43:22.147Z,22.92
2022-10-02T12:44:22.319Z,23.52
2022-10-02T12:45:22.516Z,23.94
2022-10-02T12:46:22.705Z,24.47
2022-10-02T12:47:22.894Z,25.11
2022-10-02T12:48:23.064Z,25.30
2022-10-02T12:49:23.255Z,25.63
2022-10-02T12:50:23.477Z,25.67
2022-10-02T12:51:23.621Z,25.26
2022-10-02T12:52:23.777Z,25.39
2022-10-02T12:53:23.943Z,25.58
2022-10-02T12:54:24.095Z,25.15
2022-10-02T12:55:24.258Z,23.51
2022-10-02T12:56:24.416Z,22.16